createdAt,value
2019-05-02T00:00:54.907Z,93.71
2019-05-02T00:01:54.854Z,93.71
2019-05-02T00:02:54.845Z,93.71
2019-05-02T00:03:54.839Z,93.91
2019-05-02T00:04:55.924Z,94.06
2019-05-02T00:05:54.847Z,94.37
2019-05-02T00:06:54.800Z,94.78
2019-05-02T00:07:58.522Z,94.89
2019-05-02T00:08:54.789Z,95.03
2019-05-02T00:09:54.775Z,94.99
2019-05-02T00:10:54.817Z,94.89
2019-05-02T00:11:58.854Z,95.09
2019-05-02T00:12:54.738Z,95.55
2019-05-02T00:13:54.723Z,95.65
2019-05-02T00:14:56.494Z,95.61
2019-05-02T00:15:55.733Z,95.86
2019-05-02T00:16:54.695Z,95.76
2019-05-02T00:17:56.800Z,95.65
2019-05-02T00:18:55.679Z,95.76
2019-05-02T00:19:54.675Z,95.55
2019-05-02T00:20:57.034Z,95.86
2019-05-02T00:21:55.636Z,95.24
2019-05-02T00:22:54.651Z,95.14
2019-05-02T00:23:59.083Z,95.24
2019-05-02T00:24:55.615Z,95.24
2019-05-02T00:25:54.637Z,95.65
2019-05-02T00:26:56.121Z,96.37
2019-05-02T00:27:55.578Z,95.96
2019-05-02T00:28:54.576Z,95.65
2019-05-02T00:29:58.682Z,95.76
2019-05-02T00:30:55.569Z,95.24
2019-05-02T00:31:54.538Z,95.96
2019-05-02T00:32:58.257Z,95.80
2019-05-02T00:33:55.525Z,96.73
2019-05-02T00:34:54.503Z,95.86
2019-05-02T00:35:54.527Z,95.70
2019-05-02T00:36:54.484Z,95.70
2019-05-02T00:37:57.394Z,95.80
2019-05-02T00:38:55.454Z,96.01
2019-05-02T00:39:54.452Z,95.80
2019-05-02T00:40:57.416Z,95.80
2019-05-02T00:41:55.433Z,96.11
2019-05-02T00:42:58.275Z,96.47
2019-05-02T00:43:55.413Z,96.26
2019-05-02T00:44:54.404Z,96.36
2019-05-02T00:45:55.094Z,96.47
2019-05-02T00:46:55.390Z,97.19
2019-05-02T00:47:54.365Z,97.44
2019-05-02T00:48:59.834Z,97.23
2019-05-02T00:49:55.355Z,97.23
2019-05-02T00:50:54.365Z,97.60
2019-05-02T00:51:56.568Z,97.44
2019-05-02T00:52:55.315Z,97.23
2019-05-02T00:53:54.303Z,97.44
2019-05-02T00:54:54.934Z,97.23
2019-05-02T00:55:54.335Z,97.54
2019-05-02T00:56:54.280Z,97.75
2019-05-02T00:57:55.651Z,98.27
2019-05-02T00:58:54.256Z,98.27
2019-05-02T00:59:54.248Z,97.96
2019-05-02T01:00:54.885Z,97.69
2019-05-02T01:01:54.260Z,98.21
2019-05-02T01:02:54.216Z,98.21
2019-05-02T01:03:54.200Z,98.21
2019-05-02T01:04:54.198Z,98.25
2019-05-02T01:05:54.176Z,98.25
2019-05-02T01:06:54.198Z,98.15
2019-05-02T01:07:56.032Z,98.30
2019-05-02T01:08:55.149Z,98.40
2019-05-02T01:09:54.139Z,98.40
2019-05-02T01:10:56.766Z,98.13
2019-05-02T01:11:54.138Z,98.75
2019-05-02T01:12:54.112Z,98.19
2019-05-02T01:13:55.811Z,98.75
2019-05-02T01:14:54.083Z,98.65
2019-05-02T01:15:54.071Z,98.65
2019-05-02T01:16:54.785Z,98.70
2019-05-02T01:17:54.051Z,98.60
2019-05-02T01:18:54.056Z,99.01
2019-05-02T01:19:54.037Z,98.80
2019-05-02T01:20:58.139Z,99.01
2019-05-02T01:21:55.041Z,99.52
2019-05-02T01:22:54.003Z,99.84
2019-05-02T01:23:53.984Z,99.99
2019-05-02T01:24:53.995Z,99.63
2019-05-02T01:25:54.577Z,99.84
2019-05-02T01:26:53.989Z,99.73
2019-05-02T01:27:53.947Z,99.84
2019-05-02T01:28:55.547Z,99.68
2019-05-02T01:29:53.926Z,99.63
2019-05-02T01:30:53.916Z,99.99
2019-05-02T01:31:54.691Z,99.99
2019-05-02T01:32:53.891Z,99.99
2019-05-02T01:33:53.880Z,99.99
2019-05-02T01:34:54.314Z,99.99
2019-05-02T01:35:53.865Z,99.99
2019-05-02T01:36:53.883Z,99.99
2019-05-02T01:37:54.930Z,99.99
2019-05-02T01:38:53.828Z,99.99
2019-05-02T01:39:53.822Z,99.99
2019-05-02T01:40:54.761Z,99.99
2019-05-02T01:41:53.834Z,99.99
2019-05-02T01:42:53.785Z,99.99
2019-05-02T01:43:54.869Z,99.99
2019-05-02T01:44:54.757Z,99.99
2019-05-02T01:45:53.757Z,99.99
2019-05-02T01:46:53.974Z,99.99
2019-05-02T01:47:53.732Z,99.99
2019-05-02T01:48:53.725Z,99.99
2019-05-02T01:49:57.352Z,99.99
2019-05-02T01:50:54.703Z,99.99
2019-05-02T01:51:53.732Z,99.99
2019-05-02T01:52:58.404Z,99.99
2019-05-02T01:53:54.670Z,99.99
2019-05-02T01:54:53.667Z,99.99
2019-05-02T01:55:57.621Z,99.99
2019-05-02T01:56:54.698Z,99.99
2019-05-02T01:57:53.626Z,99.99
2019-05-02T01:58:57.823Z,99.99
2019-05-02T01:59:54.635Z,99.99
2019-05-02T02:00:53.599Z,99.99
2019-05-02T02:01:57.970Z,99.99
2019-05-02T02:02:54.593Z,99.99
2019-05-02T02:03:53.565Z,99.99
2019-05-02T02:04:56.892Z,99.99
2019-05-02T02:05:53.549Z,99.99
2019-05-02T02:06:53.543Z,99.99
2019-05-02T02:07:55.459Z,99.99
2019-05-02T02:08:53.508Z,99.99
2019-05-02T02:09:53.497Z,99.99
2019-05-02T02:10:56.603Z,99.99
2019-05-02T02:11:53.474Z,99.99
2019-05-02T02:13:03.344Z,99.99
2019-05-02T02:13:54.455Z,99.99
2019-05-02T02:14:55.440Z,99.99
2019-05-02T02:15:53.433Z,99.99
2019-05-02T02:16:53.437Z,99.99
2019-05-02T02:17:53.436Z,99.99
2019-05-02T02:18:53.398Z,99.99
2019-05-02T02:19:53.398Z,99.99
2019-05-02T02:20:53.383Z,99.99
2019-05-02T02:21:57.416Z,99.99
2019-05-02T02:22:54.390Z,99.99
2019-05-02T02:23:53.392Z,99.99
2019-05-02T02:24:55.886Z,99.99
2019-05-02T02:25:54.332Z,99.99
2019-05-02T02:26:53.332Z,99.99
2019-05-02T02:27:54.902Z,99.99
2019-05-02T02:28:54.295Z,99.99
2019-05-02T02:29:53.327Z,99.99
2019-05-02T02:30:57.967Z,99.99
2019-05-02T02:31:54.264Z,99.99
2019-05-02T02:32:53.288Z,99.99
2019-05-02T02:33:53.255Z,99.99
2019-05-02T02:34:53.250Z,99.99
2019-05-02T02:35:53.244Z,99.99
2019-05-02T02:36:53.219Z,99.99
2019-05-02T02:37:55.668Z,99.99
2019-05-02T02:38:53.231Z,99.99
2019-05-02T02:39:54.186Z,99.99
2019-05-02T02:40:53.178Z,99.99
2019-05-02T02:41:54.245Z,99.99
2019-05-02T02:42:53.193Z,99.99
2019-05-02T02:43:54.816Z,99.99
2019-05-02T02:44:54.150Z,99.98
2019-05-02T02:45:57.596Z,99.99
2019-05-02T02:46:54.126Z,99.66
2019-05-02T02:48:00.048Z,99.77
2019-05-02T02:48:54.099Z,99.87
2019-05-02T02:49:56.132Z,99.35
2019-05-02T02:50:54.084Z,99.56
2019-05-02T02:51:57.913Z,99.46
2019-05-02T02:52:54.080Z,99.41
2019-05-02T02:54:02.652Z,99.15
2019-05-02T02:54:54.028Z,99.52
2019-05-02T02:56:01.148Z,99.31
2019-05-02T02:56:54.008Z,99.35
2019-05-02T02:57:58.417Z,99.21
2019-05-02T02:58:54.023Z,99.52
2019-05-02T02:59:52.987Z,99.00
2019-05-02T03:00:52.968Z,98.69
2019-05-02T03:01:52.947Z,98.58
2019-05-02T03:02:52.948Z,98.38
2019-05-02T03:03:52.959Z,97.97
2019-05-02T03:04:52.928Z,98.18
2019-05-02T03:05:58.738Z,98.11
2019-05-02T03:06:53.899Z,97.86
2019-05-02T03:07:52.890Z,98.07
2019-05-02T03:08:52.907Z,97.86
2019-05-02T03:09:52.871Z,97.86
2019-05-02T03:10:52.854Z,98.18
2019-05-02T03:11:56.255Z,97.71
2019-05-02T03:12:53.837Z,97.66
2019-05-02T03:13:54.181Z,97.86
2019-05-02T03:14:53.814Z,97.66
2019-05-02T03:15:52.882Z,97.66
2019-05-02T03:16:52.795Z,97.97
2019-05-02T03:17:52.805Z,98.07
2019-05-02T03:18:52.857Z,98.07
2019-05-02T03:19:54.289Z,97.97
2019-05-02T03:20:53.745Z,97.14
2019-05-02T03:21:54.556Z,96.83
2019-05-02T03:22:53.734Z,97.04
2019-05-02T03:24:01.640Z,97.19
2019-05-02T03:24:53.703Z,97.76
2019-05-02T03:25:52.722Z,97.60
2019-05-02T03:26:55.139Z,97.25
2019-05-02T03:27:52.676Z,97.14
2019-05-02T03:28:58.472Z,97.14
2019-05-02T03:29:53.654Z,97.14
2019-05-02T03:30:52.645Z,97.25
2019-05-02T03:32:11.616Z,97.14
2019-05-02T03:33:06.702Z,97.25
2019-05-02T03:33:59.666Z,96.94
2019-05-02T03:34:54.337Z,97.25
2019-05-02T03:35:52.593Z,97.04
2019-05-02T03:36:52.582Z,97.14
2019-05-02T03:37:53.173Z,97.29
2019-05-02T03:38:52.591Z,97.04
2019-05-02T03:39:57.402Z,97.66
2019-05-02T03:40:53.533Z,97.25
2019-05-02T03:41:55.458Z,97.45
2019-05-02T03:42:53.517Z,97.81
2019-05-02T03:44:09.817Z,97.76
2019-05-02T03:44:56.194Z,97.45
2019-05-02T03:45:53.503Z,97.55
2019-05-02T03:46:54.517Z,97.55
2019-05-02T03:47:53.494Z,97.04
2019-05-02T03:48:52.454Z,97.55
2019-05-02T03:49:52.624Z,97.55
2019-05-02T03:50:52.435Z,97.04
2019-05-02T03:51:55.867Z,97.55
2019-05-02T03:52:53.472Z,97.55
2019-05-02T03:53:52.400Z,98.07
2019-05-02T03:54:52.806Z,98.28
2019-05-02T03:55:52.397Z,97.39
2019-05-02T03:56:53.428Z,97.66
2019-05-02T03:57:52.359Z,97.55
2019-05-02T03:58:56.000Z,98.18
2019-05-02T03:59:53.368Z,97.66
2019-05-02T04:01:00.801Z,98.07
2019-05-02T04:01:53.314Z,97.66
2019-05-02T04:02:58.911Z,97.66
2019-05-02T04:03:53.309Z,97.76
2019-05-02T04:04:54.098Z,97.55
2019-05-02T04:05:53.271Z,97.76
2019-05-02T04:06:54.983Z,97.55
2019-05-02T04:07:53.253Z,97.76
2019-05-02T04:08:58.856Z,97.86
2019-05-02T04:09:53.264Z,97.66
2019-05-02T04:10:58.967Z,97.66
2019-05-02T04:11:53.218Z,97.86
2019-05-02T04:12:53.014Z,97.66
2019-05-02T04:13:53.188Z,97.86
2019-05-02T04:14:55.319Z,97.66
2019-05-02T04:15:52.173Z,97.76
2019-05-02T04:16:55.246Z,97.66
2019-05-02T04:17:53.151Z,97.76
2019-05-02T04:18:55.677Z,97.86
2019-05-02T04:19:53.151Z,97.66
2019-05-02T04:20:52.168Z,97.86
2019-05-02T04:21:54.880Z,97.86
2019-05-02T04:22:52.103Z,97.86
2019-05-02T04:23:52.087Z,97.76
2019-05-02T04:24:56.785Z,98.18
2019-05-02T04:25:53.060Z,97.76
2019-05-02T04:26:55.888Z,97.76
2019-05-02T04:27:52.050Z,97.66
2019-05-02T04:28:53.679Z,98.07
2019-05-02T04:29:52.056Z,97.55
2019-05-02T04:30:53.959Z,97.14
2019-05-02T04:31:51.999Z,97.14
2019-05-02T04:32:55.936Z,97.25
2019-05-02T04:33:51.994Z,97.25
2019-05-02T04:34:55.149Z,96.99
2019-05-02T04:35:52.963Z,97.45
2019-05-02T04:37:00.255Z,96.52
2019-05-02T04:37:52.941Z,96.11
2019-05-02T04:38:52.740Z,95.80
2019-05-02T04:39:53.761Z,96.11
2019-05-02T04:40:52.931Z,96.11
2019-05-02T04:41:51.896Z,96.01
2019-05-02T04:43:02.039Z,95.70
2019-05-02T04:43:57.594Z,95.86
2019-05-02T04:45:11.618Z,95.80
2019-05-02T04:45:57.426Z,96.01
2019-05-02T04:46:59.816Z,95.86
2019-05-02T04:47:58.458Z,95.90
2019-05-02T04:48:53.301Z,95.76
2019-05-02T04:49:52.208Z,95.86
2019-05-02T04:50:52.163Z,95.65
2019-05-02T04:52:01.494Z,95.96
2019-05-02T04:52:54.117Z,95.65
2019-05-02T04:53:51.788Z,95.86
2019-05-02T04:54:51.786Z,95.86
2019-05-02T04:56:01.948Z,95.65
2019-05-02T04:56:55.314Z,95.40
2019-05-02T04:57:51.727Z,95.71
2019-05-02T04:58:51.732Z,94.68
2019-05-02T05:00:02.560Z,95.50
2019-05-02T05:00:58.009Z,95.30
2019-05-02T05:01:57.176Z,95.20
2019-05-02T05:02:53.238Z,94.89
2019-05-02T05:03:58.672Z,95.30
2019-05-02T05:04:52.664Z,95.20
2019-05-02T05:05:51.683Z,95.20
2019-05-02T05:06:56.076Z,94.89
2019-05-02T05:07:52.620Z,95.09
2019-05-02T05:08:51.618Z,95.40
2019-05-02T05:09:57.878Z,95.61
2019-05-02T05:10:52.639Z,95.20
2019-05-02T05:11:53.879Z,94.99
2019-05-02T05:12:52.562Z,94.84
2019-05-02T05:13:52.457Z,94.64
2019-05-02T05:14:52.625Z,94.53
2019-05-02T05:15:52.082Z,94.84
2019-05-02T05:16:55.505Z,94.02
2019-05-02T05:17:52.586Z,94.02
2019-05-02T05:18:53.206Z,94.23
2019-05-02T05:19:51.495Z,93.60
2019-05-02T05:20:52.909Z,93.60
2019-05-02T05:21:51.464Z,93.81
2019-05-02T05:22:51.464Z,93.09
2019-05-02T05:23:51.763Z,93.71
2019-05-02T05:24:51.438Z,94.02
2019-05-02T05:25:55.751Z,93.30
2019-05-02T05:26:52.456Z,93.40
2019-05-02T05:28:05.865Z,93.60
2019-05-02T05:28:51.376Z,93.19
2019-05-02T05:29:53.583Z,93.46
2019-05-02T05:30:54.405Z,93.35
2019-05-02T05:31:55.032Z,93.15
2019-05-02T05:32:52.342Z,92.99
2019-05-02T05:33:51.326Z,92.78
2019-05-02T05:34:51.315Z,92.94
2019-05-02T05:35:52.650Z,93.19
2019-05-02T05:36:51.326Z,93.05
2019-05-02T05:37:52.893Z,93.05
2019-05-02T05:38:51.271Z,93.05
2019-05-02T05:39:52.712Z,93.66
2019-05-02T05:40:51.248Z,93.25
2019-05-02T05:41:52.401Z,93.15
2019-05-02T05:42:51.222Z,93.46
2019-05-02T05:43:53.606Z,92.94
2019-05-02T05:44:51.203Z,93.46
2019-05-02T05:45:56.311Z,93.46
2019-05-02T05:46:52.212Z,92.94
2019-05-02T05:47:56.525Z,92.74
2019-05-02T05:48:52.212Z,93.41
2019-05-02T05:49:52.144Z,92.53
2019-05-02T05:50:52.144Z,93.21
2019-05-02T05:51:54.272Z,93.52
2019-05-02T05:52:52.173Z,93.66
2019-05-02T05:53:52.309Z,93.01
2019-05-02T05:54:52.116Z,92.90
2019-05-02T05:55:53.565Z,93.52
2019-05-02T05:56:52.104Z,93.62
2019-05-02T05:57:59.691Z,93.01
2019-05-02T05:58:52.628Z,93.21
2019-05-02T05:59:51.065Z,93.62
2019-05-02T06:00:55.414Z,93.52
2019-05-02T06:01:52.046Z,93.21
2019-05-02T06:02:56.258Z,93.21
2019-05-02T06:03:51.998Z,93.21
2019-05-02T06:04:55.194Z,93.41
2019-05-02T06:05:51.983Z,93.62
2019-05-02T06:06:54.127Z,94.09
2019-05-02T06:07:51.962Z,92.76
2019-05-02T06:08:54.246Z,92.86
2019-05-02T06:09:50.938Z,93.68
2019-05-02T06:10:50.936Z,93.58
2019-05-02T06:11:55.491Z,93.48
2019-05-02T06:12:50.906Z,93.06
2019-05-02T06:13:50.895Z,92.76
2019-05-02T06:14:50.895Z,92.55
2019-05-02T06:16:01.574Z,92.34
2019-05-02T06:16:53.173Z,93.06
2019-05-02T06:17:50.858Z,92.65
2019-05-02T06:18:50.845Z,92.96
2019-05-02T06:19:53.695Z,91.68
2019-05-02T06:20:50.824Z,92.44
2019-05-02T06:21:50.837Z,91.83
2019-05-02T06:22:54.908Z,92.34
2019-05-02T06:23:51.796Z,92.55
2019-05-02T06:24:52.103Z,92.86
2019-05-02T06:25:50.772Z,92.34
2019-05-02T06:26:51.818Z,92.44
2019-05-02T06:27:50.746Z,92.24
2019-05-02T06:28:50.746Z,92.55
2019-05-02T06:29:51.095Z,92.65
2019-05-02T06:30:51.716Z,92.24
2019-05-02T06:31:50.729Z,92.65
2019-05-02T06:32:54.938Z,92.65
2019-05-02T06:33:51.678Z,92.76
2019-05-02T06:34:50.675Z,92.55
2019-05-02T06:35:51.847Z,92.24
2019-05-02T06:36:51.686Z,92.03
2019-05-02T06:37:51.977Z,92.82
2019-05-02T06:38:52.337Z,92.20
2019-05-02T06:39:51.621Z,91.38
2019-05-02T06:40:50.610Z,92.34
2019-05-02T06:41:52.045Z,92.30
2019-05-02T06:42:51.615Z,92.30
2019-05-02T06:43:50.588Z,92.20
2019-05-02T06:44:54.876Z,91.99
2019-05-02T06:45:51.563Z,92.40
2019-05-02T06:46:50.549Z,91.99
2019-05-02T06:47:50.562Z,92.30
2019-05-02T06:48:52.219Z,91.68
2019-05-02T06:49:50.515Z,91.38
2019-05-02T06:50:50.507Z,90.66
2019-05-02T06:51:50.966Z,91.17
2019-05-02T06:52:51.510Z,91.85
2019-05-02T06:53:50.471Z,92.30
2019-05-02T06:54:54.080Z,92.10
2019-05-02T06:55:51.450Z,92.40
2019-05-02T06:56:50.458Z,92.16
2019-05-02T06:57:51.782Z,91.17
2019-05-02T06:58:50.415Z,90.72
2019-05-02T06:59:54.673Z,90.30
2019-05-02T07:00:58.191Z,91.23
2019-05-02T07:01:52.392Z,90.00
2019-05-02T07:02:51.398Z,90.61
2019-05-02T07:03:50.364Z,89.64
2019-05-02T07:04:54.753Z,89.70
2019-05-02T07:05:50.347Z,89.54
2019-05-02T07:06:58.547Z,89.09
2019-05-02T07:07:51.445Z,88.74
2019-05-02T07:08:50.434Z,88.02
2019-05-02T07:09:50.346Z,88.84
2019-05-02T07:10:50.319Z,88.74
2019-05-02T07:11:56.908Z,88.23
2019-05-02T07:13:02.239Z,88.64
2019-05-02T07:13:51.332Z,87.61
2019-05-02T07:14:50.247Z,87.55
2019-05-02T07:15:50.238Z,88.68
2019-05-02T07:16:54.495Z,88.43
2019-05-02T07:17:51.245Z,88.43
2019-05-02T07:18:50.205Z,88.33
2019-05-02T07:19:50.193Z,88.12
2019-05-02T07:20:50.184Z,88.59
2019-05-02T07:21:53.053Z,87.05
2019-05-02T07:22:51.186Z,85.41
2019-05-02T07:23:53.673Z,86.75
2019-05-02T07:24:50.145Z,85.93
2019-05-02T07:25:50.128Z,86.91
2019-05-02T07:26:52.069Z,85.72
2019-05-02T07:27:51.133Z,86.24
2019-05-02T07:28:50.095Z,86.30
2019-05-02T07:29:52.209Z,85.58
2019-05-02T07:30:51.078Z,86.13
2019-05-02T07:31:50.080Z,85.52
2019-05-02T07:32:50.083Z,85.27
2019-05-02T07:33:50.047Z,85.93
2019-05-02T07:34:50.047Z,86.03
2019-05-02T07:35:50.025Z,86.71
2019-05-02T07:36:50.017Z,85.58
2019-05-02T07:37:50.128Z,86.81
2019-05-02T07:38:49.995Z,85.89
2019-05-02T07:39:49.990Z,85.89
2019-05-02T07:40:53.131Z,85.89
2019-05-02T07:41:49.963Z,84.55
2019-05-02T07:42:49.954Z,85.47
2019-05-02T07:43:52.187Z,85.23
2019-05-02T07:44:50.930Z,84.52
2019-05-02T07:45:49.924Z,84.31
2019-05-02T07:46:51.927Z,83.80
2019-05-02T07:47:49.901Z,84.61
2019-05-02T07:48:54.436Z,83.76
2019-05-02T07:49:49.882Z,83.90
2019-05-02T07:50:50.318Z,83.25
2019-05-02T07:51:52.390Z,83.86
2019-05-02T07:52:50.851Z,82.79
2019-05-02T07:53:49.895Z,82.35
2019-05-02T07:54:49.825Z,81.84
2019-05-02T07:55:49.813Z,81.87
2019-05-02T07:56:53.437Z,81.87
2019-05-02T07:57:49.789Z,81.84
2019-05-02T07:58:49.814Z,80.81
2019-05-02T07:59:50.059Z,80.71
2019-05-02T08:00:49.763Z,80.64
2019-05-02T08:01:50.908Z,80.60
2019-05-02T08:02:49.739Z,81.01
2019-05-02T08:03:49.751Z,80.40
2019-05-02T08:04:49.718Z,80.30
2019-05-02T08:05:49.703Z,80.43
2019-05-02T08:06:49.693Z,78.93
2019-05-02T08:07:53.487Z,79.34
2019-05-02T08:08:50.696Z,78.38
2019-05-02T08:09:49.704Z,79.06
2019-05-02T08:10:53.843Z,79.20
2019-05-02T08:11:50.635Z,78.14
2019-05-02T08:12:49.629Z,78.34
2019-05-02T08:13:55.101Z,77.73
2019-05-02T08:14:50.604Z,77.39
2019-05-02T08:15:50.821Z,77.59
2019-05-02T08:16:49.583Z,76.78
2019-05-02T08:17:53.738Z,77.08
2019-05-02T08:18:50.598Z,77.08
2019-05-02T08:19:49.553Z,76.81
2019-05-02T08:20:51.030Z,77.22
2019-05-02T08:21:50.535Z,78.24
2019-05-02T08:22:50.413Z,76.88
2019-05-02T08:23:49.543Z,76.53
2019-05-02T08:24:49.504Z,77.04
2019-05-02T08:25:49.486Z,76.26
2019-05-02T08:26:53.345Z,77.19
2019-05-02T08:27:50.468Z,77.56
2019-05-02T08:28:51.961Z,75.71
2019-05-02T08:29:49.443Z,75.82
2019-05-02T08:30:49.435Z,75.89
2019-05-02T08:31:49.425Z,74.25
2019-05-02T08:32:49.413Z,74.73
2019-05-02T08:33:49.430Z,74.05
2019-05-02T08:34:51.881Z,74.97
2019-05-02T08:35:49.381Z,74.66
2019-05-02T08:36:49.372Z,74.15
2019-05-02T08:37:49.390Z,74.63
2019-05-02T08:38:53.692Z,73.50
2019-05-02T08:39:50.338Z,73.98
2019-05-02T08:40:49.791Z,73.23
2019-05-02T08:41:51.235Z,73.19
2019-05-02T08:42:50.334Z,71.53
2019-05-02T08:43:49.294Z,72.55
2019-05-02T08:44:51.160Z,71.23
2019-05-02T08:45:49.290Z,69.90
2019-05-02T08:46:51.519Z,70.89
2019-05-02T08:47:49.288Z,69.76
2019-05-02T08:48:50.838Z,69.09
2019-05-02T08:49:54.358Z,69.60
2019-05-02T08:50:50.219Z,68.75
2019-05-02T08:51:49.222Z,68.01
2019-05-02T08:52:49.230Z,67.74
2019-05-02T08:53:52.146Z,68.99
2019-05-02T08:54:50.177Z,66.66
2019-05-02T08:55:49.167Z,65.74
2019-05-02T08:56:53.279Z,65.36
2019-05-02T08:57:50.176Z,66.72
2019-05-02T08:58:49.928Z,67.63
2019-05-02T08:59:49.137Z,66.08
2019-05-02T09:00:49.128Z,66.76
2019-05-02T09:01:49.801Z,65.20
2019-05-02T09:02:49.126Z,65.61
2019-05-02T09:03:55.525Z,63.72
2019-05-02T09:04:58.377Z,63.49
2019-05-02T09:05:50.076Z,62.62
2019-05-02T09:06:53.141Z,60.57
2019-05-02T09:07:50.090Z,59.63
2019-05-02T09:08:51.510Z,59.01
2019-05-02T09:09:49.019Z,59.25
2019-05-02T09:10:49.014Z,58.89
2019-05-02T09:12:07.124Z,58.02
2019-05-02T09:12:51.931Z,57.89
2019-05-02T09:13:49.003Z,55.85
2019-05-02T09:14:48.976Z,54.76
2019-05-02T09:15:51.276Z,52.89
2019-05-02T09:16:48.955Z,53.80
2019-05-02T09:17:52.687Z,53.50
2019-05-02T09:18:51.868Z,52.82
2019-05-02T09:20:00.384Z,54.71
2019-05-02T09:20:52.712Z,52.64
2019-05-02T09:21:52.163Z,54.36
2019-05-02T09:22:52.106Z,56.61
2019-05-02T09:23:51.759Z,57.67
2019-05-02T09:24:48.868Z,54.23
2019-05-02T09:25:48.850Z,53.32
2019-05-02T09:26:48.850Z,52.62
2019-05-02T09:27:48.832Z,52.39
2019-05-02T09:28:48.846Z,52.92
2019-05-02T09:29:48.814Z,53.98
2019-05-02T09:30:48.801Z,52.39
2019-05-02T09:31:48.794Z,50.71
2019-05-02T09:32:48.780Z,49.51
2019-05-02T09:33:48.802Z,51.61
2019-05-02T09:34:48.774Z,53.88
2019-05-02T09:35:48.747Z,53.67
2019-05-02T09:36:48.746Z,51.43
2019-05-02T09:37:48.733Z,51.76
2019-05-02T09:38:53.153Z,52.29
2019-05-02T09:39:49.732Z,53.96
2019-05-02T09:40:52.531Z,55.11
2019-05-02T09:41:49.686Z,55.82
2019-05-02T09:42:53.568Z,56.56
2019-05-02T09:43:49.664Z,56.90
2019-05-02T09:44:53.371Z,54.83
2019-05-02T09:45:51.847Z,55.41
2019-05-02T09:46:53.085Z,58.76
2019-05-02T09:47:57.253Z,59.29
2019-05-02T09:48:51.841Z,58.71
2019-05-02T09:49:50.381Z,60.59
2019-05-02T09:50:48.623Z,61.30
2019-05-02T09:51:50.334Z,60.86
2019-05-02T09:52:49.575Z,60.06
2019-05-02T09:53:48.563Z,60.16
2019-05-02T09:54:48.552Z,56.98
2019-05-02T09:55:55.019Z,56.20
2019-05-02T09:56:49.532Z,52.59
2019-05-02T09:57:48.619Z,51.73
2019-05-02T09:58:49.361Z,51.29
2019-05-02T09:59:50.504Z,51.93
2019-05-02T10:00:49.518Z,51.68
2019-05-02T10:01:48.478Z,49.25
2019-05-02T10:02:48.472Z,49.40
2019-05-02T10:03:48.454Z,47.88
2019-05-02T10:04:48.447Z,49.56
2019-05-02T10:05:48.470Z,47.58
2019-05-02T10:06:48.430Z,50.78
2019-05-02T10:07:48.767Z,51.01
2019-05-02T10:08:48.407Z,50.68
2019-05-02T10:09:48.398Z,50.08
2019-05-02T10:10:48.415Z,52.17
2019-05-02T10:11:48.375Z,53.09
2019-05-02T10:12:48.367Z,54.46
2019-05-02T10:13:48.372Z,56.81
2019-05-02T10:14:48.346Z,57.79
2019-05-02T10:15:48.377Z,58.27
2019-05-02T10:16:48.325Z,57.09
2019-05-02T10:17:48.312Z,56.32
2019-05-02T10:18:48.303Z,54.56
2019-05-02T10:19:49.536Z,54.00
2019-05-02T10:20:48.289Z,53.63
2019-05-02T10:21:52.451Z,52.72
2019-05-02T10:22:49.256Z,53.50
2019-05-02T10:23:53.740Z,53.40
2019-05-02T10:24:49.242Z,54.28
2019-05-02T10:25:48.235Z,51.18
2019-05-02T10:26:48.245Z,50.24
2019-05-02T10:27:48.210Z,47.03
2019-05-02T10:28:50.398Z,48.02
2019-05-02T10:29:48.195Z,50.11
2019-05-02T10:30:52.652Z,47.33
2019-05-02T10:31:49.192Z,47.77
2019-05-02T10:32:55.607Z,48.20
2019-05-02T10:33:49.142Z,48.88
2019-05-02T10:34:55.100Z,48.20
2019-05-02T10:35:49.125Z,50.51
2019-05-02T10:36:54.180Z,49.46
2019-05-02T10:37:49.107Z,47.71
2019-05-02T10:38:49.000Z,46.30
2019-05-02T10:39:49.083Z,46.24
2019-05-02T10:40:53.510Z,43.65
2019-05-02T10:41:49.092Z,42.11
2019-05-02T10:42:48.063Z,43.27
2019-05-02T10:43:51.953Z,46.14
2019-05-02T10:44:49.044Z,44.74
2019-05-02T10:45:52.880Z,45.20
2019-05-02T10:46:49.041Z,44.96
2019-05-02T10:47:48.016Z,48.98
2019-05-02T10:48:47.995Z,49.13
2019-05-02T10:49:48.006Z,47.03
2019-05-02T10:50:48.018Z,46.65
2019-05-02T10:51:49.605Z,48.80
2019-05-02T10:52:47.953Z,51.11
2019-05-02T10:53:52.775Z,52.42
2019-05-02T10:54:48.947Z,53.98
2019-05-02T10:55:47.922Z,54.41
2019-05-02T10:56:47.962Z,55.36
2019-05-02T10:57:47.901Z,51.29
2019-05-02T10:58:47.889Z,50.46
2019-05-02T10:59:47.879Z,51.99
2019-05-02T11:00:47.868Z,51.26
2019-05-02T11:01:47.970Z,49.40
2019-05-02T11:02:47.850Z,51.64
2019-05-02T11:03:47.842Z,51.31
2019-05-02T11:04:47.826Z,50.81
2019-05-02T11:05:47.813Z,52.97
2019-05-02T11:06:47.837Z,52.54
2019-05-02T11:07:47.797Z,53.00
2019-05-02T11:08:47.778Z,53.42
2019-05-02T11:09:47.806Z,53.63
2019-05-02T11:10:47.768Z,53.42
2019-05-02T11:11:47.783Z,53.02
2019-05-02T11:12:47.747Z,49.68
2019-05-02T11:13:47.738Z,48.86
2019-05-02T11:14:47.724Z,47.49
2019-05-02T11:15:47.711Z,44.62
2019-05-02T11:16:47.737Z,45.96
2019-05-02T11:17:47.696Z,47.55
2019-05-02T11:18:47.685Z,47.38
2019-05-02T11:19:47.706Z,47.46
2019-05-02T11:20:47.668Z,46.26
2019-05-02T11:21:56.391Z,46.06
2019-05-02T11:22:48.645Z,46.46
2019-05-02T11:23:47.733Z,46.94
2019-05-02T11:24:47.741Z,44.46
2019-05-02T11:25:47.614Z,46.48
2019-05-02T11:26:47.599Z,46.38
2019-05-02T11:27:47.590Z,47.63
2019-05-02T11:28:47.577Z,49.01
2019-05-02T11:29:47.601Z,48.50
2019-05-02T11:30:47.564Z,50.71
2019-05-02T11:31:47.544Z,51.66
2019-05-02T11:32:47.546Z,49.80
2019-05-02T11:33:47.536Z,49.28
2019-05-02T11:34:47.548Z,47.33
2019-05-02T11:35:48.934Z,47.23
2019-05-02T11:36:47.504Z,46.81
2019-05-02T11:37:47.490Z,47.20
2019-05-02T11:38:54.006Z,45.58
2019-05-02T11:39:52.663Z,44.68
2019-05-02T11:40:48.458Z,47.47
2019-05-02T11:41:47.460Z,50.96
2019-05-02T11:42:47.442Z,50.58
2019-05-02T11:43:47.435Z,51.49
2019-05-02T11:44:47.419Z,50.98
2019-05-02T11:45:47.442Z,51.93
2019-05-02T11:46:47.402Z,52.97
2019-05-02T11:47:47.392Z,53.20
2019-05-02T11:48:57.270Z,49.54
2019-05-02T11:49:52.030Z,47.23
2019-05-02T11:50:48.384Z,47.63
2019-05-02T11:51:52.691Z,44.84
2019-05-02T11:52:48.353Z,45.14
2019-05-02T11:53:47.338Z,45.16
2019-05-02T11:54:48.655Z,46.73
2019-05-02T11:55:47.348Z,48.75
2019-05-02T11:56:49.286Z,47.83
2019-05-02T11:57:47.303Z,48.68
2019-05-02T11:58:48.413Z,48.66
2019-05-02T11:59:47.272Z,49.53
2019-05-02T12:00:49.668Z,51.06
2019-05-02T12:01:59.018Z,50.33
2019-05-02T12:02:49.157Z,50.66
2019-05-02T12:03:47.255Z,49.37
2019-05-02T12:04:51.868Z,52.09
2019-05-02T12:05:48.278Z,50.76
2019-05-02T12:06:50.071Z,49.35
2019-05-02T12:07:48.182Z,49.08
2019-05-02T12:08:49.382Z,49.26
2019-05-02T12:09:52.050Z,49.30
2019-05-02T12:10:48.178Z,50.43
2019-05-02T12:11:47.456Z,49.28
2019-05-02T12:12:47.135Z,49.58
2019-05-02T12:13:51.409Z,47.85
2019-05-02T12:14:48.114Z,47.45
2019-05-02T12:15:47.142Z,49.28
2019-05-02T12:16:47.094Z,49.18
2019-05-02T12:17:47.088Z,49.76
2019-05-02T12:18:47.077Z,51.54
2019-05-02T12:19:47.064Z,53.88
2019-05-02T12:20:47.079Z,53.34
2019-05-02T12:21:47.053Z,52.24
2019-05-02T12:22:47.066Z,52.59
2019-05-02T12:23:47.037Z,53.12
2019-05-02T12:24:47.019Z,53.09
2019-05-02T12:25:47.032Z,50.68
2019-05-02T12:26:46.993Z,49.48
2019-05-02T12:27:46.988Z,48.66
2019-05-02T12:28:46.993Z,49.38
2019-05-02T12:29:50.225Z,49.18
2019-05-02T12:30:47.981Z,50.29
2019-05-02T12:31:47.185Z,47.97
2019-05-02T12:32:46.951Z,49.51
2019-05-02T12:33:46.918Z,51.64
2019-05-02T12:34:46.914Z,49.58
2019-05-02T12:35:46.926Z,47.75
2019-05-02T12:36:46.886Z,49.40
2019-05-02T12:37:47.205Z,49.13
2019-05-02T12:38:46.868Z,47.50
2019-05-02T12:39:46.893Z,45.04
2019-05-02T12:40:46.880Z,44.82
2019-05-02T12:41:47.185Z,46.78
2019-05-02T12:42:46.830Z,48.75
2019-05-02T12:43:46.821Z,48.88
2019-05-02T12:44:46.803Z,49.13
2019-05-02T12:45:46.819Z,49.22
2019-05-02T12:46:46.787Z,49.07
2019-05-02T12:47:46.776Z,51.56
2019-05-02T12:48:46.772Z,51.64
2019-05-02T12:49:46.788Z,50.91
2019-05-02T12:50:46.777Z,53.17
2019-05-02T12:51:46.730Z,50.83
2019-05-02T12:52:46.723Z,51.61